createdAt,value
2022-10-06T00:01:10.879Z,13.23
2022-10-06T00:03:45.871Z,13.15
2022-10-06T00:06:15.140Z,13.06
2022-10-06T00:08:43.327Z,13.00
2022-10-06T00:11:11.487Z,12.98
2022-10-06T00:13:38.274Z,12.90
2022-10-06T00:16:17.708Z,12.83
2022-10-06T00:18:44.692Z,12.81
2022-10-06T00:21:10.844Z,12.83
2022-10-06T00:23:37.061Z,12.80
2022-10-06T00:26:03.773Z,12.77
2022-10-06T00:28:30.221Z,12.75
2022-10-06T00:31:01.394Z,12.76
2022-10-06T00:33:27.796Z,12.75
2022-10-06T00:35:58.105Z,12.77
2022-10-06T00:38:24.705Z,12.80
2022-10-06T00:40:51.548Z,12.85
2022-10-06T00:43:39.836Z,12.80
2022-10-06T00:46:17.313Z,12.82
2022-10-06T00:48:46.159Z,12.80
2022-10-06T00:51:13.560Z,12.82
2022-10-06T00:53:40.132Z,12.83
2022-10-06T00:56:06.294Z,12.88
2022-10-06T00:58:32.878Z,12.92
2022-10-06T01:00:59.140Z,12.93
2022-10-06T01:03:32.698Z,12.95
2022-10-06T01:06:01.386Z,12.99
2022-10-06T01:08:28.956Z,13.03
2022-10-06T01:10:55.319Z,13.06
2022-10-06T01:13:22.743Z,13.09
2022-10-06T01:15:58.705Z,13.13
2022-10-06T01:18:28.787Z,13.17
2022-10-06T01:21:14.570Z,13.18
2022-10-06T01:23:41.256Z,13.24
2022-10-06T01:26:09.998Z,13.25
2022-10-06T01:28:37.944Z,13.26
2022-10-06T01:31:07.165Z,13.29
2022-10-06T01:33:33.563Z,13.35
2022-10-06T01:35:59.702Z,13.34
2022-10-06T01:38:26.508Z,13.34
2022-10-06T01:40:57.901Z,13.34
2022-10-06T01:43:24.088Z,13.35
2022-10-06T01:45:55.210Z,13.33
2022-10-06T01:48:21.707Z,13.33
2022-10-06T01:50:48.896Z,13.35
2022-10-06T01:53:15.166Z,13.36
2022-10-06T01:55:41.275Z,13.36
2022-10-06T01:58:08.763Z,13.36
2022-10-06T02:00:35.990Z,13.38
2022-10-06T02:03:03.019Z,13.39
2022-10-06T02:05:29.261Z,13.40
2022-10-06T02:07:55.863Z,13.44
2022-10-06T02:10:22.076Z,13.47
2022-10-06T02:12:53.720Z,13.44
2022-10-06T02:15:22.227Z,13.48
2022-10-06T02:17:48.682Z,13.51
2022-10-06T02:20:15.581Z,13.53
2022-10-06T02:22:43.124Z,13.53
2022-10-06T02:25:11.262Z,13.51
2022-10-06T02:27:38.643Z,13.53
2022-10-06T02:30:07.612Z,13.50
2022-10-06T02:32:36.338Z,13.49
2022-10-06T02:35:03.973Z,13.52
2022-10-06T02:37:30.916Z,13.56
2022-10-06T02:39:57.144Z,13.61
2022-10-06T02:42:23.412Z,13.70
2022-10-06T02:44:51.448Z,13.76
2022-10-06T02:47:21.523Z,13.82
2022-10-06T02:49:47.975Z,13.81
2022-10-06T02:52:16.465Z,13.85
2022-10-06T02:54:42.636Z,13.87
2022-10-06T02:57:08.978Z,13.85
2022-10-06T02:59:35.868Z,13.84
2022-10-06T03:02:03.946Z,13.87
2022-10-06T03:04:30.229Z,13.86
2022-10-06T03:06:57.011Z,13.86
2022-10-06T03:09:26.204Z,13.91
2022-10-06T03:11:52.924Z,13.99
2022-10-06T03:14:32.574Z,14.07
2022-10-06T03:16:58.826Z,14.13
2022-10-06T03:19:28.089Z,14.19
2022-10-06T03:21:55.090Z,14.26
2022-10-06T03:24:26.467Z,14.33
2022-10-06T03:26:57.355Z,14.36
2022-10-06T03:29:24.500Z,14.39
2022-10-06T03:31:54.137Z,14.46
2022-10-06T03:34:20.495Z,14.51
2022-10-06T03:36:47.698Z,14.56
2022-10-06T03:39:17.351Z,14.61
2022-10-06T03:41:43.684Z,14.68
2022-10-06T03:44:09.903Z,14.73
2022-10-06T03:46:40.214Z,14.78
2022-10-06T03:49:08.029Z,14.85
2022-10-06T03:51:37.137Z,14.96
2022-10-06T03:54:04.113Z,14.96
2022-10-06T03:56:37.656Z,15.05
2022-10-06T03:59:07.679Z,15.08
2022-10-06T04:01:37.032Z,15.12
2022-10-06T04:04:06.472Z,15.17
2022-10-06T04:06:38.527Z,15.23
2022-10-06T04:09:14.726Z,15.24
2022-10-06T04:11:43.748Z,15.31
2022-10-06T04:14:14.069Z,15.34
2022-10-06T04:16:50.004Z,15.37
2022-10-06T04:19:21.501Z,15.35
2022-10-06T04:21:50.858Z,15.34
2022-10-06T04:24:24.504Z,15.38
2022-10-06T04:26:51.662Z,15.42
2022-10-06T04:29:18.910Z,15.45
2022-10-06T04:31:49.752Z,15.49
2022-10-06T04:34:21.295Z,15.49
2022-10-06T04:36:47.806Z,15.48
2022-10-06T04:39:16.330Z,15.52
2022-10-06T04:41:46.831Z,15.49
2022-10-06T04:44:16.942Z,15.44
2022-10-06T04:46:44.995Z,15.44
2022-10-06T04:49:18.994Z,15.40
2022-10-06T04:51:48.504Z,15.33
2022-10-06T04:54:15.278Z,15.26
2022-10-06T04:56:41.983Z,15.20
2022-10-06T04:59:09.552Z,15.19
2022-10-06T05:01:38.338Z,15.16
2022-10-06T05:04:08.642Z,15.11
2022-10-06T05:06:39.128Z,15.05
2022-10-06T05:09:08.494Z,15.04
2022-10-06T05:11:35.711Z,14.99
2022-10-06T05:14:04.931Z,15.02
2022-10-06T05:16:33.641Z,14.95
2022-10-06T05:19:00.161Z,14.94
2022-10-06T05:21:31.505Z,14.93
2022-10-06T05:24:00.082Z,14.92
2022-10-06T05:26:29.113Z,14.89
2022-10-06T05:28:56.525Z,14.90
2022-10-06T05:31:28.951Z,14.95
2022-10-06T05:33:57.448Z,14.98
2022-10-06T05:36:30.737Z,15.02
2022-10-06T05:38:57.861Z,15.10
2022-10-06T05:41:28.182Z,15.14
2022-10-06T05:43:56.335Z,15.22
2022-10-06T05:46:35.306Z,15.23
2022-10-06T05:49:07.463Z,15.36
2022-10-06T05:51:35.077Z,15.52
2022-10-06T05:54:05.687Z,15.78
2022-10-06T05:56:34.488Z,15.87
2022-10-06T05:59:02.252Z,15.92
2022-10-06T06:01:34.522Z,15.92
2022-10-06T06:04:05.846Z,15.94
2022-10-06T06:06:42.363Z,15.93
2022-10-06T06:09:17.699Z,15.92
2022-10-06T06:11:47.935Z,15.93
2022-10-06T06:14:40.910Z,15.94
2022-10-06T06:17:08.324Z,16.03
2022-10-06T06:19:34.760Z,16.06
2022-10-06T06:22:00.979Z,16.05
2022-10-06T06:24:27.424Z,16.09
2022-10-06T06:26:53.654Z,16.13
2022-10-06T06:29:19.826Z,16.19
2022-10-06T06:31:49.305Z,16.23
2022-10-06T06:34:15.750Z,16.29
2022-10-06T06:36:46.156Z,16.42
2022-10-06T06:39:17.980Z,16.52
2022-10-06T06:41:46.632Z,16.55
2022-10-06T06:44:33.368Z,16.57
2022-10-06T06:47:04.277Z,16.51
2022-10-06T06:49:30.913Z,16.49
2022-10-06T06:52:02.686Z,16.47
2022-10-06T06:54:29.320Z,16.50
2022-10-06T06:57:01.435Z,16.57
2022-10-06T06:59:28.511Z,16.55
2022-10-06T07:01:57.509Z,16.59
2022-10-06T07:04:25.129Z,16.69
2022-10-06T07:07:00.672Z,16.67
2022-10-06T07:09:33.601Z,16.71
2022-10-06T07:12:06.507Z,16.67
2022-10-06T07:14:32.714Z,16.68
2022-10-06T07:17:19.113Z,16.75
2022-10-06T07:20:07.835Z,16.79
2022-10-06T07:22:53.568Z,16.83
2022-10-06T07:25:26.579Z,16.82
2022-10-06T07:28:01.716Z,16.86
2022-10-06T07:30:34.155Z,16.87
2022-10-06T07:33:07.922Z,16.92
2022-10-06T07:35:34.106Z,17.03
2022-10-06T07:38:07.350Z,17.10
2022-10-06T07:40:42.727Z,17.19
2022-10-06T07:43:18.020Z,17.28
2022-10-06T07:45:48.805Z,17.36
2022-10-06T07:48:29.221Z,17.36
2022-10-06T07:51:01.211Z,17.40
2022-10-06T07:53:35.371Z,17.46
2022-10-06T07:56:08.247Z,17.49
2022-10-06T07:58:41.147Z,17.53
2022-10-06T08:01:10.016Z,17.59
2022-10-06T08:03:36.961Z,17.65
2022-10-06T08:06:03.748Z,17.66
2022-10-06T08:08:32.107Z,17.76
2022-10-06T08:11:01.487Z,17.76
2022-10-06T08:13:31.451Z,17.79
2022-10-06T08:16:06.191Z,17.82
2022-10-06T08:18:48.229Z,17.85
2022-10-06T08:21:18.472Z,17.84
2022-10-06T08:23:46.552Z,17.88
2022-10-06T08:26:14.210Z,17.96
2022-10-06T08:28:44.700Z,18.02
2022-10-06T08:31:10.965Z,18.18
2022-10-06T08:33:42.123Z,18.27
2022-10-06T08:36:11.517Z,18.46
2022-10-06T08:38:38.165Z,18.43
2022-10-06T08:41:24.282Z,18.48
2022-10-06T08:44:19.396Z,18.53
2022-10-06T08:47:07.117Z,18.56
2022-10-06T08:49:43.866Z,18.71
2022-10-06T08:52:35.051Z,18.81
2022-10-06T08:55:26.413Z,18.94
2022-10-06T09:00:37.696Z,18.98
2022-10-06T09:03:07.131Z,19.27
2022-10-06T09:05:34.265Z,19.39
2022-10-06T09:08:43.534Z,19.65
2022-10-06T09:11:27.055Z,19.74
2022-10-06T09:14:00.809Z,19.73
2022-10-06T09:16:31.892Z,19.54
2022-10-06T09:19:24.794Z,19.59
2022-10-06T09:21:53.237Z,19.67
2022-10-06T09:24:46.380Z,19.48
2022-10-06T09:27:20.496Z,19.30
2022-10-06T09:29:50.050Z,19.30
2022-10-06T09:32:19.012Z,19.38
2022-10-06T09:34:51.223Z,19.57
2022-10-06T09:37:18.840Z,19.93
2022-10-06T09:39:52.460Z,20.18
2022-10-06T09:42:21.423Z,19.94
2022-10-06T09:44:50.670Z,20.20
2022-10-06T09:47:46.709Z,20.13
2022-10-06T09:50:21.841Z,20.03
2022-10-06T09:52:57.318Z,20.18
2022-10-06T09:55:29.066Z,20.19
2022-10-06T09:57:56.939Z,20.06
2022-10-06T10:00:35.202Z,20.34
2022-10-06T10:03:07.429Z,20.62
2022-10-06T10:05:38.961Z,20.59
2022-10-06T10:08:26.779Z,20.36
2022-10-06T10:11:41.420Z,20.36
2022-10-06T10:14:19.622Z,20.60
2022-10-06T10:16:50.913Z,20.69
2022-10-06T10:19:33.183Z,20.76
2022-10-06T10:21:59.547Z,21.02
2022-10-06T10:24:48.898Z,21.20
2022-10-06T10:27:32.603Z,21.31
2022-10-06T10:30:10.103Z,21.39
2022-10-06T10:32:48.690Z,21.56
2022-10-06T10:35:22.391Z,21.66
2022-10-06T10:37:59.847Z,21.69
2022-10-06T10:40:32.141Z,21.67
2022-10-06T10:43:34.663Z,21.50
2022-10-06T10:46:03.601Z,21.46
2022-10-06T10:48:38.713Z,21.54
2022-10-06T10:51:19.204Z,21.61
2022-10-06T10:54:04.347Z,21.52
2022-10-06T10:56:32.268Z,21.57
2022-10-06T10:59:06.446Z,21.36
2022-10-06T11:01:40.970Z,21.19
2022-10-06T11:04:12.038Z,21.06
2022-10-06T11:07:06.356Z,20.85
2022-10-06T11:09:45.359Z,21.00
2022-10-06T11:12:36.414Z,21.12
2022-10-06T11:15:44.182Z,21.17
2022-10-06T11:18:25.404Z,21.28
2022-10-06T11:20:54.902Z,21.31
2022-10-06T11:23:50.220Z,21.13
2022-10-06T11:26:19.307Z,21.24
2022-10-06T11:29:06.900Z,21.25
2022-10-06T11:32:03.807Z,21.05
2022-10-06T11:34:30.115Z,20.91
2022-10-06T11:37:11.593Z,20.85
2022-10-06T11:39:49.572Z,20.82
2022-10-06T11:45:28.304Z,20.62
2022-10-06T11:48:06.949Z,20.49
2022-10-06T11:50:35.787Z,20.56
2022-10-06T11:53:04.088Z,20.65
2022-10-06T11:55:31.096Z,20.52
2022-10-06T12:01:01.663Z,20.59
2022-10-06T12:03:27.881Z,20.67
2022-10-06T12:05:56.841Z,20.69
2022-10-06T12:08:38.782Z,20.67
2022-10-06T12:11:40.572Z,20.66
2022-10-06T12:16:32.525Z,20.49
2022-10-06T12:17:39.725Z,20.60
2022-10-06T12:20:47.084Z,20.67
2022-10-06T12:23:42.729Z,20.61
2022-10-06T12:26:16.611Z,20.61
2022-10-06T12:28:48.463Z,20.75
2022-10-06T12:31:33.304Z,20.75
2022-10-06T12:33:59.540Z,20.80
2022-10-06T12:36:29.326Z,20.86
2022-10-06T12:39:02.295Z,20.64
2022-10-06T12:42:00.980Z,20.49
2022-10-06T12:44:39.664Z,20.59
2022-10-06T12:47:22.097Z,20.71
2022-10-06T12:49:53.050Z,20.69
2022-10-06T12:52:38.770Z,20.70
2022-10-06T12:55:31.638Z,20.62
2022-10-06T12:57:58.011Z,20.69
2022-10-06T13:00:38.885Z,20.71
2022-10-06T13:03:08.335Z,20.77
2022-10-06T13:05:35.941Z,20.69
2022-10-06T13:08:05.474Z,20.61
2022-10-06T13:10:32.692Z,20.62
2022-10-06T13:12:59.724Z,20.63
2022-10-06T13:15:34.461Z,20.72
2022-10-06T13:18:22.375Z,20.76
2022-10-06T13:20:50.930Z,20.69
2022-10-06T13:23:34.515Z,20.65
2022-10-06T13:26:03.847Z,20.68
2022-10-06T13:28:43.090Z,20.61
2022-10-06T13:31:30.666Z,20.61
2022-10-06T13:34:03.240Z,20.55
2022-10-06T13:36:33.043Z,20.49
2022-10-06T13:39:02.506Z,20.42
2022-10-06T13:41:36.354Z,20.33
2022-10-06T13:44:16.708Z,20.21
2022-10-06T13:46:48.325Z,20.29
2022-10-06T13:49:22.801Z,20.22
2022-10-06T13:51:54.672Z,20.15
2022-10-06T13:54:30.276Z,20.00
2022-10-06T13:56:57.973Z,20.05
2022-10-06T13:59:37.768Z,20.05
2022-10-06T14:02:19.386Z,20.00
2022-10-06T14:05:23.318Z,19.98
2022-10-06T14:07:50.555Z,19.86
2022-10-06T14:10:43.752Z,19.75
2022-10-06T14:13:26.458Z,19.75
2022-10-06T14:15:59.942Z,19.80
2022-10-06T14:18:40.381Z,19.74
2022-10-06T14:21:29.335Z,19.78
2022-10-06T14:23:56.327Z,19.74
2022-10-06T14:26:25.702Z,19.70
2022-10-06T14:28:53.414Z,19.62
2022-10-06T14:31:21.112Z,19.52
2022-10-06T14:33:51.989Z,19.49
2022-10-06T14:36:27.958Z,19.42
2022-10-06T14:38:56.137Z,19.29
2022-10-06T14:41:27.746Z,19.32
2022-10-06T14:43:55.371Z,19.24
2022-10-06T14:46:24.534Z,19.24
2022-10-06T14:48:51.842Z,19.19
2022-10-06T14:51:18.943Z,19.12
2022-10-06T14:53:54.691Z,19.03
2022-10-06T14:56:22.917Z,19.04
2022-10-06T14:58:50.760Z,18.83
2022-10-06T15:01:20.325Z,18.88
2022-10-06T15:03:56.031Z,18.90
2022-10-06T15:06:41.343Z,18.89
2022-10-06T15:09:08.387Z,18.88
2022-10-06T15:11:35.266Z,18.84
2022-10-06T15:14:02.280Z,18.74
2022-10-06T15:16:31.394Z,18.69
2022-10-06T15:18:59.079Z,18.67
2022-10-06T15:21:26.450Z,18.63
2022-10-06T15:23:58.255Z,18.58
2022-10-06T15:26:43.890Z,18.56
2022-10-06T15:29:11.066Z,18.41
2022-10-06T15:31:39.634Z,18.35
2022-10-06T15:34:08.431Z,18.27
2022-10-06T15:36:36.697Z,18.23
2022-10-06T15:39:12.170Z,18.20
2022-10-06T15:41:40.760Z,18.10
2022-10-06T15:44:07.760Z,18.07
2022-10-06T15:46:39.848Z,18.03
2022-10-06T15:49:08.720Z,17.98
2022-10-06T15:51:37.545Z,17.85
2022-10-06T15:54:04.830Z,17.78
2022-10-06T15:56:31.495Z,17.63
2022-10-06T15:58:58.903Z,17.52
2022-10-06T16:01:31.594Z,17.40
2022-10-06T16:04:07.645Z,17.32
2022-10-06T16:06:41.111Z,17.24
2022-10-06T16:09:11.573Z,17.15
2022-10-06T16:11:38.474Z,17.04
2022-10-06T16:14:05.407Z,16.93
2022-10-06T16:16:32.324Z,16.84
2022-10-06T16:19:01.495Z,16.74
2022-10-06T16:21:32.022Z,16.60
2022-10-06T16:23:59.082Z,16.59
2022-10-06T16:26:27.425Z,16.47
2022-10-06T16:28:53.817Z,16.39
2022-10-06T16:31:22.675Z,16.25
2022-10-06T16:33:49.179Z,16.10
2022-10-06T16:36:16.861Z,16.06
2022-10-06T16:38:43.411Z,16.00
2022-10-06T16:41:10.095Z,15.95
2022-10-06T16:43:38.589Z,15.87
2022-10-06T16:46:17.401Z,15.77
2022-10-06T16:48:46.493Z,15.67
2022-10-06T16:51:16.890Z,15.60
2022-10-06T16:53:44.497Z,15.54
2022-10-06T16:56:15.139Z,15.49
2022-10-06T16:58:44.278Z,15.43
2022-10-06T17:01:13.865Z,15.31
2022-10-06T17:03:42.299Z,15.20
2022-10-06T17:06:14.588Z,15.11
2022-10-06T17:08:41.817Z,14.99
2022-10-06T17:11:17.504Z,14.80
2022-10-06T17:13:45.610Z,14.76
2022-10-06T17:16:16.689Z,14.75
2022-10-06T17:18:47.481Z,14.68
2022-10-06T17:21:39.717Z,14.58
2022-10-06T17:24:03.311Z,14.49
2022-10-06T17:26:34.901Z,14.50
2022-10-06T17:29:05.168Z,14.47
2022-10-06T17:31:36.679Z,14.36
2022-10-06T17:34:26.447Z,14.19
2022-10-06T17:36:54.234Z,14.12
2022-10-06T17:39:22.056Z,14.05
2022-10-06T17:41:51.740Z,14.04
2022-10-06T17:44:21.841Z,14.01
2022-10-06T17:46:50.696Z,13.82
2022-10-06T17:49:21.526Z,13.78
2022-10-06T17:51:50.047Z,13.67
2022-10-06T17:54:19.432Z,13.55
2022-10-06T17:56:47.680Z,13.45
2022-10-06T17:59:17.440Z,13.26
2022-10-06T18:01:44.790Z,13.16
2022-10-06T18:04:15.424Z,13.14
2022-10-06T18:06:43.358Z,13.13
2022-10-06T18:09:10.303Z,13.07
2022-10-06T18:11:42.639Z,13.00
2022-10-06T18:14:17.796Z,12.94
2022-10-06T18:16:48.922Z,12.81
2022-10-06T18:19:24.807Z,12.75
2022-10-06T18:21:53.531Z,12.64
2022-10-06T18:24:22.492Z,12.60
2022-10-06T18:26:50.711Z,12.58
2022-10-06T18:29:19.986Z,12.51
2022-10-06T18:31:52.027Z,12.56
2022-10-06T18:37:05.460Z,12.56
2022-10-06T18:39:32.849Z,12.57
2022-10-06T18:42:02.447Z,12.54
2022-10-06T18:44:47.793Z,12.55
2022-10-06T18:47:32.642Z,12.52
2022-10-06T18:49:59.432Z,12.41
2022-10-06T18:52:26.385Z,12.28
2022-10-06T18:54:52.736Z,12.17
2022-10-06T18:57:21.587Z,12.16
2022-10-06T18:59:50.261Z,12.10
2022-10-06T19:02:18.203Z,12.13
2022-10-06T19:04:44.488Z,12.09
2022-10-06T19:07:10.703Z,12.09
2022-10-06T19:09:37.394Z,12.02
2022-10-06T19:12:04.246Z,11.95
2022-10-06T19:14:35.160Z,11.88
2022-10-06T19:17:06.071Z,11.80
2022-10-06T19:19:33.340Z,11.78
2022-10-06T19:22:02.862Z,11.69
2022-10-06T19:24:34.308Z,11.73
2022-10-06T19:27:03.004Z,11.70
2022-10-06T19:29:35.953Z,11.81
2022-10-06T19:32:04.644Z,11.77
2022-10-06T19:34:34.254Z,11.75
2022-10-06T19:37:00.797Z,11.63
2022-10-06T19:39:34.694Z,11.58
2022-10-06T19:42:19.657Z,11.56
2022-10-06T19:44:46.931Z,11.51
2022-10-06T19:47:14.602Z,11.51
2022-10-06T19:49:42.207Z,11.48
2022-10-06T19:52:11.699Z,11.43
2022-10-06T19:54:41.365Z,11.37
2022-10-06T19:57:10.709Z,11.34
2022-10-06T19:59:37.438Z,11.29
2022-10-06T20:02:06.961Z,11.25
2022-10-06T20:04:34.055Z,11.17
2022-10-06T20:07:01.391Z,11.18
2022-10-06T20:09:32.080Z,11.18
2022-10-06T20:12:02.083Z,11.12
2022-10-06T20:14:28.813Z,11.08
2022-10-06T20:16:56.896Z,11.07
2022-10-06T20:19:24.711Z,11.08
2022-10-06T20:21:52.375Z,11.09
2022-10-06T20:24:24.990Z,11.01
2022-10-06T20:26:53.409Z,11.03
2022-10-06T20:29:23.435Z,11.07
2022-10-06T20:31:55.476Z,11.03
2022-10-06T20:34:25.773Z,11.01
2022-10-06T20:36:56.043Z,11.02
2022-10-06T20:39:44.530Z,10.93
2022-10-06T20:42:14.852Z,10.87
2022-10-06T20:44:42.663Z,10.79
2022-10-06T20:47:09.807Z,10.74
2022-10-06T20:49:36.647Z,10.72
2022-10-06T20:52:04.128Z,10.64
2022-10-06T20:54:34.002Z,10.67
2022-10-06T20:57:03.694Z,10.60
2022-10-06T20:59:31.160Z,10.53
2022-10-06T21:02:00.472Z,10.48
2022-10-06T21:04:27.495Z,10.39
2022-10-06T21:06:54.415Z,10.38
2022-10-06T21:09:20.931Z,10.38
2022-10-06T21:11:50.759Z,10.34
2022-10-06T21:14:17.549Z,10.27
2022-10-06T21:16:46.819Z,10.18
2022-10-06T21:19:16.391Z,10.18
2022-10-06T21:21:51.382Z,10.14
2022-10-06T21:24:18.739Z,10.23
2022-10-06T21:26:45.052Z,10.20
2022-10-06T21:29:15.114Z,10.10
2022-10-06T21:31:44.019Z,10.11
2022-10-06T21:34:10.444Z,10.01
2022-10-06T21:36:37.197Z,10.00
2022-10-06T21:39:05.069Z,9.99
2022-10-06T21:41:38.115Z,10.01
2022-10-06T21:44:13.186Z,9.90
2022-10-06T21:46:47.160Z,9.86
2022-10-06T21:49:16.117Z,9.84
2022-10-06T21:51:45.003Z,9.86
2022-10-06T21:54:11.658Z,9.82
2022-10-06T21:56:38.578Z,9.80
2022-10-06T21:59:05.444Z,9.81
2022-10-06T22:01:34.902Z,9.81
2022-10-06T22:04:01.482Z,9.79
2022-10-06T22:06:29.172Z,9.73
2022-10-06T22:08:57.041Z,9.73
2022-10-06T22:11:29.994Z,9.73
2022-10-06T22:13:58.925Z,9.76
2022-10-06T22:16:27.516Z,9.79
2022-10-06T22:18:54.504Z,9.82
2022-10-06T22:21:23.862Z,9.84
2022-10-06T22:24:01.485Z,9.77
2022-10-06T22:26:30.384Z,9.73
2022-10-06T22:28:57.886Z,9.76
2022-10-06T22:31:26.411Z,9.74
2022-10-06T22:33:58.369Z,9.58
2022-10-06T22:36:26.186Z,9.52
2022-10-06T22:38:52.902Z,9.52
2022-10-06T22:41:19.463Z,9.47
2022-10-06T22:43:45.689Z,9.51
2022-10-06T22:46:12.944Z,9.41
2022-10-06T22:48:39.935Z,9.31
2022-10-06T22:51:06.693Z,9.22
2022-10-06T22:53:33.519Z,9.12
2022-10-06T22:56:01.466Z,9.09
2022-10-06T22:58:27.980Z,9.11
2022-10-06T23:00:54.589Z,9.10
2022-10-06T23:03:21.891Z,9.08
2022-10-06T23:05:56.269Z,9.05
2022-10-06T23:08:23.521Z,9.04
2022-10-06T23:10:49.954Z,9.10
2022-10-06T23:13:17.033Z,9.06
2022-10-06T23:15:43.381Z,9.04
2022-10-06T23:18:09.636Z,9.10
2022-10-06T23:20:36.014Z,9.00
2022-10-06T23:23:02.424Z,8.94
2022-10-06T23:25:28.624Z,8.87
2022-10-06T23:27:55.040Z,8.81
2022-10-06T23:30:21.436Z,8.87
2022-10-06T23:32:47.598Z,8.92
2022-10-06T23:35:13.997Z,8.92
2022-10-06T23:37:40.401Z,8.90
2022-10-06T23:40:07.277Z,8.93
2022-10-06T23:42:33.393Z,8.91
2022-10-06T23:44:59.732Z,8.88
2022-10-06T23:47:25.932Z,8.92
2022-10-06T23:49:53.553Z,8.87
2022-10-06T23:52:19.850Z,8.84
2022-10-06T23:54:45.997Z,8.83
2022-10-06T23:57:12.144Z,8.80
2022-10-06T23:59:38.507Z,8.77
